createdAt,value
2019-05-14T00:01:42.865Z,27.57
2019-05-14T00:06:35.428Z,8.00
2019-05-14T00:11:27.916Z,8.47
2019-05-14T00:16:24.084Z,11.67
2019-05-14T00:21:14.280Z,7.93
2019-05-14T00:26:06.549Z,16.60
2019-05-14T00:30:58.980Z,25.37
2019-05-14T00:35:51.589Z,21.67
2019-05-14T00:40:43.777Z,21.80
2019-05-14T00:45:36.131Z,21.13
2019-05-14T00:50:28.489Z,16.63
2019-05-14T00:55:22.315Z,19.47
2019-05-14T01:00:15.091Z,16.33
2019-05-14T01:05:08.394Z,25.73
2019-05-14T01:10:01.432Z,31.27
2019-05-14T01:15:07.061Z,34.50
2019-05-14T01:19:48.052Z,27.10
2019-05-14T01:24:41.733Z,18.00
2019-05-14T01:29:34.590Z,14.27
2019-05-14T01:34:26.777Z,16.20
2019-05-14T01:39:21.308Z,10.43
2019-05-14T01:44:13.234Z,10.40
2019-05-14T01:49:05.808Z,16.23
2019-05-14T01:53:58.001Z,23.80
2019-05-14T01:58:52.278Z,8.33
2019-05-14T02:03:45.039Z,6.90
2019-05-14T02:08:37.653Z,11.83
2019-05-14T02:13:32.185Z,11.03
2019-05-14T02:18:23.703Z,11.07
2019-05-14T02:23:16.229Z,7.60
2019-05-14T02:28:11.407Z,13.53
2019-05-14T02:33:03.241Z,4.70
2019-05-14T02:37:59.368Z,4.10
2019-05-14T02:42:50.098Z,13.40
2019-05-14T02:47:42.517Z,16.33
2019-05-14T02:52:34.784Z,10.63
2019-05-14T02:57:30.326Z,11.20
2019-05-14T03:02:21.792Z,14.20
2019-05-14T03:07:14.643Z,10.80
2019-05-14T03:12:09.722Z,11.93
2019-05-14T03:17:01.537Z,9.00
2019-05-14T03:21:54.263Z,14.60
2019-05-14T03:26:49.665Z,17.03
2019-05-14T03:31:42.659Z,12.50
2019-05-14T03:36:35.739Z,11.50
2019-05-14T03:41:30.567Z,13.57
2019-05-14T03:46:41.167Z,8.43
2019-05-14T03:51:16.470Z,10.03
2019-05-14T03:56:10.386Z,8.73
2019-05-14T04:01:03.081Z,12.87
2019-05-14T04:05:58.713Z,13.70
2019-05-14T04:10:54.205Z,8.27
2019-05-14T04:15:49.789Z,11.93
2019-05-14T04:20:44.815Z,13.23
2019-05-14T04:25:40.458Z,25.40
2019-05-14T04:30:39.606Z,15.17
2019-05-14T04:35:30.084Z,11.47
2019-05-14T04:40:22.676Z,12.17
2019-05-14T04:45:15.011Z,7.47
2019-05-14T04:50:10.518Z,8.40
2019-05-14T04:55:02.851Z,5.80
2019-05-14T04:59:55.470Z,6.20
2019-05-14T05:04:54.371Z,7.97
2019-05-14T05:09:49.896Z,10.30
2019-05-14T05:14:41.038Z,8.77
2019-05-14T05:19:33.627Z,9.13
2019-05-14T05:24:28.650Z,9.93
2019-05-14T05:29:19.937Z,10.10
2019-05-14T05:34:12.541Z,7.73
2019-05-14T05:39:08.570Z,7.57
2019-05-14T05:44:01.115Z,4.70
2019-05-14T05:48:53.468Z,4.70
2019-05-14T05:53:48.172Z,5.13
2019-05-14T05:58:40.164Z,5.03
2019-05-14T06:03:32.802Z,2.90
2019-05-14T06:08:25.186Z,2.50
2019-05-14T06:13:18.294Z,2.30
2019-05-14T06:18:17.815Z,2.25
2019-05-14T06:23:04.632Z,2.40
2019-05-14T06:27:59.028Z,2.20
2019-05-14T06:32:51.408Z,1.97
2019-05-14T06:37:43.897Z,1.90
2019-05-14T06:42:39.175Z,1.95
2019-05-14T06:47:30.610Z,1.70
2019-05-14T06:52:23.024Z,1.98
2019-05-14T06:57:17.921Z,2.15
2019-05-14T07:02:09.721Z,2.10
2019-05-14T07:07:02.149Z,2.22
2019-05-14T07:11:54.056Z,1.92
2019-05-14T07:16:48.545Z,2.05
2019-05-14T07:21:40.609Z,2.25
2019-05-14T07:26:33.377Z,1.98
2019-05-14T07:31:25.782Z,2.05
2019-05-14T07:36:19.065Z,2.15
2019-05-14T07:41:11.511Z,2.00
2019-05-14T07:46:03.740Z,2.05
2019-05-14T07:50:55.903Z,2.40
2019-05-14T07:55:49.277Z,2.20
2019-05-14T08:00:42.057Z,1.72
2019-05-14T08:05:34.318Z,1.98
2019-05-14T08:10:26.399Z,2.15
2019-05-14T08:15:22.520Z,2.10
2019-05-14T08:20:15.466Z,1.80
2019-05-14T08:25:08.941Z,1.90
2019-05-14T08:30:01.132Z,1.98
2019-05-14T08:34:53.707Z,2.05
2019-05-14T08:39:48.577Z,1.80
2019-05-14T08:44:40.626Z,2.00
2019-05-14T08:49:42.466Z,1.80
2019-05-14T08:54:28.356Z,1.85
2019-05-14T08:59:20.883Z,2.00
2019-05-14T09:04:13.323Z,2.15
2019-05-14T09:09:09.279Z,1.62
2019-05-14T09:14:01.743Z,2.17
2019-05-14T09:18:54.390Z,2.15
2019-05-14T09:23:48.193Z,2.00
2019-05-14T09:28:40.533Z,1.95
2019-05-14T09:33:32.610Z,2.08
2019-05-14T09:38:24.976Z,1.85
2019-05-14T09:43:18.236Z,2.00
2019-05-14T09:48:10.648Z,1.90
2019-05-14T09:53:03.250Z,2.00
2019-05-14T09:57:55.792Z,1.87
2019-05-14T10:02:49.472Z,1.85
2019-05-14T10:07:41.790Z,1.92
2019-05-14T10:12:39.337Z,2.30
2019-05-14T10:17:28.983Z,2.42
2019-05-14T10:22:22.295Z,2.30
2019-05-14T10:27:14.618Z,2.25
2019-05-14T10:32:08.723Z,2.12
2019-05-14T10:37:01.335Z,2.00
2019-05-14T10:41:54.022Z,2.12
2019-05-14T10:46:46.378Z,2.20
2019-05-14T10:51:38.992Z,1.90
2019-05-14T10:56:31.535Z,2.12
2019-05-14T11:01:24.151Z,2.20
2019-05-14T11:06:18.775Z,2.42
2019-05-14T11:11:10.878Z,2.20
2019-05-14T11:16:03.405Z,2.20
2019-05-14T11:21:17.446Z,2.40
2019-05-14T11:25:49.897Z,2.00
2019-05-14T11:30:43.120Z,2.40
2019-05-14T11:35:35.010Z,2.30
2019-05-14T11:40:29.364Z,2.50
2019-05-14T11:45:21.920Z,2.30
2019-05-14T11:50:15.019Z,2.22
2019-05-14T11:55:09.128Z,2.45
2019-05-14T12:00:01.233Z,2.10
2019-05-14T12:04:53.377Z,2.25
2019-05-14T12:09:45.759Z,2.20
2019-05-14T12:14:38.112Z,2.16
2019-05-14T12:19:30.965Z,2.25
2019-05-14T12:24:23.291Z,2.20
2019-05-14T12:29:15.768Z,2.10
2019-05-14T12:34:08.054Z,2.20
2019-05-14T12:39:00.589Z,2.35
2019-05-14T12:43:53.805Z,2.37
2019-05-14T12:48:46.077Z,2.40
2019-05-14T12:53:48.580Z,2.33
2019-05-14T12:58:44.681Z,2.72
2019-05-14T13:03:31.385Z,2.70
2019-05-14T13:08:23.886Z,2.72
2019-05-14T13:13:16.193Z,2.65
2019-05-14T13:18:08.917Z,2.80
2019-05-14T13:23:01.332Z,2.35
2019-05-14T13:27:53.767Z,2.42
2019-05-14T13:32:48.563Z,2.42
2019-05-14T13:37:40.483Z,2.58
2019-05-14T13:42:32.845Z,2.67
2019-05-14T13:47:25.556Z,2.22
2019-05-14T13:52:18.829Z,2.22
2019-05-14T13:57:12.198Z,2.27
2019-05-14T14:02:04.711Z,2.23
2019-05-14T14:06:59.019Z,1.82
2019-05-14T14:11:51.805Z,1.95
2019-05-14T14:16:43.887Z,1.90
2019-05-14T14:21:36.172Z,1.85
2019-05-14T14:26:29.266Z,1.87
2019-05-14T14:31:21.860Z,1.87
2019-05-14T14:36:14.329Z,1.98
2019-05-14T14:41:10.158Z,1.70
2019-05-14T14:46:00.857Z,1.70
2019-05-14T14:50:53.451Z,1.92
2019-05-14T14:55:49.638Z,1.60
2019-05-14T15:00:40.473Z,1.87
2019-05-14T15:05:32.740Z,2.00
2019-05-14T15:10:25.160Z,1.85
2019-05-14T15:15:18.632Z,2.05
2019-05-14T15:20:11.615Z,1.85
2019-05-14T15:25:05.022Z,1.87
2019-05-14T15:29:59.337Z,1.80
2019-05-14T15:34:51.848Z,2.00
2019-05-14T15:39:44.567Z,1.80
2019-05-14T15:44:48.821Z,1.85
2019-05-14T15:49:31.191Z,1.50
2019-05-14T15:54:39.261Z,1.90
2019-05-14T15:59:19.294Z,1.80
2019-05-14T16:04:11.761Z,1.80
2019-05-14T16:09:06.346Z,1.70
2019-05-14T16:13:58.792Z,1.90
2019-05-14T16:18:51.193Z,1.80
2019-05-14T16:23:43.366Z,2.37
2019-05-14T16:28:36.047Z,1.82
2019-05-14T16:33:29.370Z,1.60
2019-05-14T16:38:23.209Z,1.90
2019-05-14T16:43:15.931Z,2.00
2019-05-14T16:48:10.970Z,1.70
2019-05-14T16:53:02.500Z,1.87
2019-05-14T16:57:55.238Z,1.90
2019-05-14T17:02:48.330Z,1.92
2019-05-14T17:07:40.792Z,1.90
2019-05-14T17:12:48.274Z,1.70
2019-05-14T17:17:27.469Z,1.90
2019-05-14T17:22:28.774Z,1.80
2019-05-14T17:27:13.307Z,1.80
2019-05-14T17:32:05.862Z,1.72
2019-05-14T17:36:59.414Z,1.80
2019-05-14T17:41:52.035Z,2.02
2019-05-14T17:46:44.635Z,1.98
2019-05-14T17:51:39.130Z,1.62
2019-05-14T17:56:31.470Z,1.60
2019-05-14T18:01:24.231Z,1.75
2019-05-14T18:06:18.723Z,1.75
2019-05-14T18:11:10.011Z,1.90
2019-05-14T18:16:02.676Z,1.77
2019-05-14T18:20:55.381Z,1.90
2019-05-14T18:26:03.414Z,1.70
2019-05-14T18:30:41.823Z,1.50
2019-05-14T18:35:34.430Z,1.60
2019-05-14T18:40:28.105Z,1.70
2019-05-14T18:45:20.784Z,1.57
2019-05-14T18:50:14.175Z,2.90
2019-05-14T18:55:08.474Z,1.87
2019-05-14T19:00:01.258Z,1.50
2019-05-14T19:04:53.562Z,1.35
2019-05-14T19:09:45.881Z,1.77
2019-05-14T19:14:38.989Z,1.77
2019-05-14T19:19:31.804Z,1.75
2019-05-14T19:24:23.755Z,1.77
2019-05-14T19:29:15.970Z,1.90
2019-05-14T19:34:08.633Z,2.17
2019-05-14T19:39:00.875Z,2.30
2019-05-14T19:43:53.409Z,2.40
2019-05-14T19:48:48.224Z,3.70
2019-05-14T19:53:39.996Z,5.00
2019-05-14T19:58:32.259Z,5.37
2019-05-14T20:03:24.409Z,4.70
2019-05-14T20:08:18.920Z,5.40
2019-05-14T20:13:11.051Z,2.52
2019-05-14T20:18:03.852Z,2.55
2019-05-14T20:22:58.770Z,2.05
2019-05-14T20:27:50.033Z,3.00
2019-05-14T20:32:44.348Z,4.45
2019-05-14T20:37:38.830Z,33.63
2019-05-14T20:42:30.304Z,6.53
2019-05-14T20:47:22.363Z,4.73
2019-05-14T20:52:14.998Z,3.95
2019-05-14T20:57:22.626Z,4.20
2019-05-14T21:02:01.933Z,2.75
2019-05-14T21:06:54.533Z,3.27
2019-05-14T21:11:49.140Z,6.57
2019-05-14T21:16:40.814Z,5.53
2019-05-14T21:21:33.095Z,4.60
2019-05-14T21:26:25.475Z,4.50
2019-05-14T21:31:18.237Z,3.27
2019-05-14T21:36:12.328Z,13.83
2019-05-14T21:41:05.051Z,6.13
2019-05-14T21:45:58.678Z,10.77
2019-05-14T21:50:51.567Z,29.23
2019-05-14T21:55:44.179Z,7.23
2019-05-14T22:00:43.488Z,7.23
2019-05-14T22:05:35.938Z,5.10
2019-05-14T22:10:28.973Z,4.23
2019-05-14T22:15:21.799Z,4.40
2019-05-14T22:20:14.880Z,4.43
2019-05-14T22:25:08.181Z,6.50
2019-05-14T22:30:00.783Z,10.20
2019-05-14T22:34:53.316Z,5.62
2019-05-14T22:39:47.964Z,8.33
2019-05-14T22:44:39.706Z,3.90
2019-05-14T22:49:32.058Z,6.00
2019-05-14T22:54:24.422Z,4.40
2019-05-14T22:59:20.349Z,3.60
2019-05-14T23:04:10.931Z,3.40
2019-05-14T23:09:04.290Z,4.53
2019-05-14T23:13:58.208Z,3.30
2019-05-14T23:18:51.031Z,3.10
2019-05-14T23:23:42.984Z,3.20
2019-05-14T23:28:44.470Z,3.20
2019-05-14T23:33:29.230Z,2.90
2019-05-14T23:38:21.755Z,2.93
2019-05-14T23:43:14.131Z,2.53
2019-05-14T23:48:06.522Z,3.07
2019-05-14T23:53:00.059Z,3.00
2019-05-14T23:57:52.099Z,3.20
